Terminal Aerodrome Forecast
Issued by NWS Rapid City, SD

Home | Current Version | Previous Version | Graphics & Text | Print | Product List | Glossary On
Versions: 1 2 3 4 5 6 7 8 9 10 11 12 13 14
883
FTUS43 KUNR 192320
TAFRAP
TAF
KRAP 192320Z 2000/2024 VRB05KT P6SM -SHRA BKN040 OVC060
     FM200400 VRB04KT 6SM -RA SCT015 BKN020 OVC030
     FM201700 09010KT P6SM SCT020 BKN035=

USA.gov is the U.S. government's official web portal to all federal, state and local government web resources and services.